sensor_id;sensor_type;location;lat;lon;timestamp;P1;durP1;ratioP1;P2;durP2;ratioP2
41139;SDS011;26881;48.784;9.192;2024-03-07T00:04:56;43.70;;;30.53;;
41139;SDS011;26881;48.784;9.192;2024-03-07T00:10:17;43.53;;;31.40;;
41139;SDS011;26881;48.784;9.192;2024-03-07T00:15:39;48.73;;;32.67;;
41139;SDS011;26881;48.784;9.192;2024-03-07T00:21:03;46.30;;;31.87;;
41139;SDS011;26881;48.784;9.192;2024-03-07T00:26:25;44.10;;;31.70;;
41139;SDS011;26881;48.784;9.192;2024-03-07T00:31:47;43.73;;;31.00;;
41139;SDS011;26881;48.784;9.192;2024-03-07T00:37:09;45.67;;;32.03;;
41139;SDS011;26881;48.784;9.192;2024-03-07T00:42:31;49.30;;;32.47;;
41139;SDS011;26881;48.784;9.192;2024-03-07T00:47:53;51.07;;;32.13;;
41139;SDS011;26881;48.784;9.192;2024-03-07T00:53:15;45.23;;;32.33;;
41139;SDS011;26881;48.784;9.192;2024-03-07T00:58:37;44.37;;;33.07;;
41139;SDS011;26881;48.784;9.192;2024-03-07T01:04:00;46.97;;;32.13;;
41139;SDS011;26881;48.784;9.192;2024-03-07T01:09:22;42.78;;;32.33;;
41139;SDS011;26881;48.784;9.192;2024-03-07T01:14:44;43.67;;;32.33;;
41139;SDS011;26881;48.784;9.192;2024-03-07T01:20:07;47.87;;;32.93;;
41139;SDS011;26881;48.784;9.192;2024-03-07T01:25:30;50.47;;;33.13;;
41139;SDS011;26881;48.784;9.192;2024-03-07T01:30:55;49.40;;;34.60;;
41139;SDS011;26881;48.784;9.192;2024-03-07T01:36:18;48.80;;;35.97;;
41139;SDS011;26881;48.784;9.192;2024-03-07T01:41:41;50.73;;;34.97;;
41139;SDS011;26881;48.784;9.192;2024-03-07T01:47:03;55.40;;;37.00;;
41139;SDS011;26881;48.784;9.192;2024-03-07T01:52:25;51.63;;;36.13;;
41139;SDS011;26881;48.784;9.192;2024-03-07T01:57:48;44.07;;;34.90;;
41139;SDS011;26881;48.784;9.192;2024-03-07T02:03:10;48.00;;;36.57;;
41139;SDS011;26881;48.784;9.192;2024-03-07T02:08:32;54.17;;;37.20;;
41139;SDS011;26881;48.784;9.192;2024-03-07T02:13:54;51.80;;;38.63;;
41139;SDS011;26881;48.784;9.192;2024-03-07T02:19:16;55.20;;;37.70;;
41139;SDS011;26881;48.784;9.192;2024-03-07T02:24:39;55.73;;;39.20;;
41139;SDS011;26881;48.784;9.192;2024-03-07T02:30:01;54.30;;;39.70;;
41139;SDS011;26881;48.784;9.192;2024-03-07T02:35:25;59.90;;;40.73;;
41139;SDS011;26881;48.784;9.192;2024-03-07T02:40:47;64.87;;;42.23;;
41139;SDS011;26881;48.784;9.192;2024-03-07T02:46:09;60.00;;;43.00;;
41139;SDS011;26881;48.784;9.192;2024-03-07T02:51:33;61.10;;;43.43;;
41139;SDS011;26881;48.784;9.192;2024-03-07T02:56:55;58.33;;;41.30;;
41139;SDS011;26881;48.784;9.192;2024-03-07T03:02:17;63.13;;;41.57;;
41139;SDS011;26881;48.784;9.192;2024-03-07T03:07:39;58.70;;;43.40;;
41139;SDS011;26881;48.784;9.192;2024-03-07T03:13:02;62.20;;;43.03;;
41139;SDS011;26881;48.784;9.192;2024-03-07T03:18:24;67.10;;;45.10;;
41139;SDS011;26881;48.784;9.192;2024-03-07T03:23:46;70.13;;;46.40;;
41139;SDS011;26881;48.784;9.192;2024-03-07T03:29:09;76.53;;;47.27;;
41139;SDS011;26881;48.784;9.192;2024-03-07T03:34:33;71.37;;;46.73;;
41139;SDS011;26881;48.784;9.192;2024-03-07T03:39:55;68.93;;;46.23;;
41139;SDS011;26881;48.784;9.192;2024-03-07T03:45:17;77.10;;;49.47;;
41139;SDS011;26881;48.784;9.192;2024-03-07T03:50:39;72.37;;;49.10;;
41139;SDS011;26881;48.784;9.192;2024-03-07T03:56:02;78.47;;;48.80;;
41139;SDS011;26881;48.784;9.192;2024-03-07T04:01:26;76.83;;;49.83;;
41139;SDS011;26881;48.784;9.192;2024-03-07T04:06:47;75.70;;;48.27;;
41139;SDS011;26881;48.784;9.192;2024-03-07T04:12:10;79.60;;;50.67;;
41139;SDS011;26881;48.784;9.192;2024-03-07T04:17:32;85.53;;;53.50;;
41139;SDS011;26881;48.784;9.192;2024-03-07T04:22:57;85.57;;;53.17;;
41139;SDS011;26881;48.784;9.192;2024-03-07T04:28:19;74.13;;;49.87;;
41139;SDS011;26881;48.784;9.192;2024-03-07T04:33:42;74.93;;;50.47;;
41139;SDS011;26881;48.784;9.192;2024-03-07T04:39:04;74.47;;;49.83;;
41139;SDS011;26881;48.784;9.192;2024-03-07T04:44:27;76.93;;;52.00;;
41139;SDS011;26881;48.784;9.192;2024-03-07T04:49:49;72.63;;;49.20;;
41139;SDS011;26881;48.784;9.192;2024-03-07T04:55:11;69.97;;;47.77;;
41139;SDS011;26881;48.784;9.192;2024-03-07T05:00:33;68.77;;;48.20;;
41139;SDS011;26881;48.784;9.192;2024-03-07T05:05:55;68.47;;;46.93;;
41139;SDS011;26881;48.784;9.192;2024-03-07T05:11:17;67.93;;;45.10;;
41139;SDS011;26881;48.784;9.192;2024-03-07T05:16:39;63.53;;;45.43;;
41139;SDS011;26881;48.784;9.192;2024-03-07T05:22:01;70.00;;;45.20;;
41139;SDS011;26881;48.784;9.192;2024-03-07T05:27:26;71.60;;;46.27;;
41139;SDS011;26881;48.784;9.192;2024-03-07T05:32:49;68.33;;;46.40;;
41139;SDS011;26881;48.784;9.192;2024-03-07T05:38:11;77.67;;;50.37;;
41139;SDS011;26881;48.784;9.192;2024-03-07T05:43:33;77.83;;;48.53;;
41139;SDS011;26881;48.784;9.192;2024-03-07T05:48:56;76.73;;;50.67;;
41139;SDS011;26881;48.784;9.192;2024-03-07T05:54:18;71.20;;;48.70;;
41139;SDS011;26881;48.784;9.192;2024-03-07T05:59:40;73.87;;;47.83;;
41139;SDS011;26881;48.784;9.192;2024-03-07T06:05:02;76.80;;;49.10;;
41139;SDS011;26881;48.784;9.192;2024-03-07T06:10:25;80.73;;;51.50;;
41139;SDS011;26881;48.784;9.192;2024-03-07T06:15:47;79.87;;;49.73;;
41139;SDS011;26881;48.784;9.192;2024-03-07T06:21:09;73.30;;;48.20;;
41139;SDS011;26881;48.784;9.192;2024-03-07T06:26:32;68.10;;;46.10;;
41139;SDS011;26881;48.784;9.192;2024-03-07T06:32:16;70.33;;;46.17;;
41139;SDS011;26881;48.784;9.192;2024-03-07T06:37:37;66.90;;;43.50;;
41139;SDS011;26881;48.784;9.192;2024-03-07T06:43:00;73.60;;;49.50;;
41139;SDS011;26881;48.784;9.192;2024-03-07T06:48:25;63.13;;;43.77;;
41139;SDS011;26881;48.784;9.192;2024-03-07T06:53:47;66.03;;;43.97;;
41139;SDS011;26881;48.784;9.192;2024-03-07T06:59:10;66.03;;;42.93;;
41139;SDS011;26881;48.784;9.192;2024-03-07T07:04:32;62.13;;;44.70;;
41139;SDS011;26881;48.784;9.192;2024-03-07T07:10:03;61.37;;;40.87;;
41139;SDS011;26881;48.784;9.192;2024-03-07T07:15:29;61.53;;;41.13;;
41139;SDS011;26881;48.784;9.192;2024-03-07T07:20:50;56.00;;;40.47;;
41139;SDS011;26881;48.784;9.192;2024-03-07T07:26:16;55.73;;;38.97;;
41139;SDS011;26881;48.784;9.192;2024-03-07T07:31:38;52.70;;;38.03;;
41139;SDS011;26881;48.784;9.192;2024-03-07T07:36:59;49.10;;;36.80;;
41139;SDS011;26881;48.784;9.192;2024-03-07T07:42:21;56.80;;;37.33;;
41139;SDS011;26881;48.784;9.192;2024-03-07T07:47:44;46.13;;;35.93;;
41139;SDS011;26881;48.784;9.192;2024-03-07T07:53:07;45.40;;;34.17;;
41139;SDS011;26881;48.784;9.192;2024-03-07T07:58:30;45.20;;;33.20;;
41139;SDS011;26881;48.784;9.192;2024-03-07T08:03:52;41.23;;;31.20;;
41139;SDS011;26881;48.784;9.192;2024-03-07T08:09:15;39.93;;;30.13;;
41139;SDS011;26881;48.784;9.192;2024-03-07T08:14:38;36.83;;;28.47;;
41139;SDS011;26881;48.784;9.192;2024-03-07T08:20:00;38.03;;;28.77;;
41139;SDS011;26881;48.784;9.192;2024-03-07T08:25:25;36.13;;;28.63;;
41139;SDS011;26881;48.784;9.192;2024-03-07T08:30:48;33.13;;;25.63;;
41139;SDS011;26881;48.784;9.192;2024-03-07T08:36:10;35.90;;;26.27;;
41139;SDS011;26881;48.784;9.192;2024-03-07T08:41:32;32.77;;;24.20;;
41139;SDS011;26881;48.784;9.192;2024-03-07T08:46:58;32.47;;;25.87;;
41139;SDS011;26881;48.784;9.192;2024-03-07T08:52:20;33.57;;;25.17;;
41139;SDS011;26881;48.784;9.192;2024-03-07T08:57:42;35.23;;;25.77;;
41139;SDS011;26881;48.784;9.192;2024-03-07T09:03:07;35.10;;;27.90;;
41139;SDS011;26881;48.784;9.192;2024-03-07T09:08:34;38.70;;;27.60;;
41139;SDS011;26881;48.784;9.192;2024-03-07T09:13:56;41.47;;;28.87;;
41139;SDS011;26881;48.784;9.192;2024-03-07T09:19:17;37.83;;;28.30;;
41139;SDS011;26881;48.784;9.192;2024-03-07T09:24:41;38.73;;;29.03;;
41139;SDS011;26881;48.784;9.192;2024-03-07T09:30:04;37.40;;;26.80;;
41139;SDS011;26881;48.784;9.192;2024-03-07T09:35:26;38.27;;;28.00;;
41139;SDS011;26881;48.784;9.192;2024-03-07T09:40:48;33.33;;;26.90;;
41139;SDS011;26881;48.784;9.192;2024-03-07T09:46:11;33.55;;;27.10;;
41139;SDS011;26881;48.784;9.192;2024-03-07T09:51:34;34.37;;;26.47;;
41139;SDS011;26881;48.784;9.192;2024-03-07T09:56:58;35.30;;;27.47;;
41139;SDS011;26881;48.784;9.192;2024-03-07T10:02:24;34.63;;;27.38;;
41139;SDS011;26881;48.784;9.192;2024-03-07T10:07:47;39.35;;;27.15;;
41139;SDS011;26881;48.784;9.192;2024-03-07T10:13:10;34.08;;;26.92;;
41139;SDS011;26881;48.784;9.192;2024-03-07T10:18:43;30.60;;;23.73;;
41139;SDS011;26881;48.784;9.192;2024-03-07T10:24:07;32.85;;;25.73;;
41139;SDS011;26881;48.784;9.192;2024-03-07T10:29:29;33.20;;;26.05;;
41139;SDS011;26881;48.784;9.192;2024-03-07T10:34:52;30.23;;;25.55;;
41139;SDS011;26881;48.784;9.192;2024-03-07T10:40:15;39.55;;;27.15;;
41139;SDS011;26881;48.784;9.192;2024-03-07T10:45:40;33.28;;;29.02;;
41139;SDS011;26881;48.784;9.192;2024-03-07T10:56:47;41.38;;;29.08;;
41139;SDS011;26881;48.784;9.192;2024-03-07T11:02:32;36.70;;;28.17;;
41139;SDS011;26881;48.784;9.192;2024-03-07T11:07:59;41.30;;;29.50;;
41139;SDS011;26881;48.784;9.192;2024-03-07T11:13:26;36.95;;;28.02;;
41139;SDS011;26881;48.784;9.192;2024-03-07T11:24:39;36.58;;;28.13;;
41139;SDS011;26881;48.784;9.192;2024-03-07T11:30:07;38.13;;;28.23;;
41139;SDS011;26881;48.784;9.192;2024-03-07T11:35:32;40.13;;;28.88;;
41139;SDS011;26881;48.784;9.192;2024-03-07T11:40:59;35.40;;;27.60;;
41139;SDS011;26881;48.784;9.192;2024-03-07T11:46:23;37.30;;;26.42;;
41139;SDS011;26881;48.784;9.192;2024-03-07T11:51:45;37.88;;;28.38;;
41139;SDS011;26881;48.784;9.192;2024-03-07T11:57:09;33.60;;;27.07;;
41139;SDS011;26881;48.784;9.192;2024-03-07T12:02:36;39.15;;;28.58;;
41139;SDS011;26881;48.784;9.192;2024-03-07T12:07:59;37.35;;;27.08;;
41139;SDS011;26881;48.784;9.192;2024-03-07T12:13:22;35.25;;;27.77;;
41139;SDS011;26881;48.784;9.192;2024-03-07T12:18:46;39.00;;;28.45;;
41139;SDS011;26881;48.784;9.192;2024-03-07T12:24:13;40.60;;;28.08;;
41139;SDS011;26881;48.784;9.192;2024-03-07T12:29:36;39.45;;;29.38;;
41139;SDS011;26881;48.784;9.192;2024-03-07T12:34:59;40.53;;;30.08;;
41139;SDS011;26881;48.784;9.192;2024-03-07T12:40:22;43.38;;;31.20;;
41139;SDS011;26881;48.784;9.192;2024-03-07T12:45:48;38.70;;;30.38;;
41139;SDS011;26881;48.784;9.192;2024-03-07T12:51:13;40.35;;;31.30;;
41139;SDS011;26881;48.784;9.192;2024-03-07T12:56:41;37.05;;;28.92;;
41139;SDS011;26881;48.784;9.192;2024-03-07T13:02:03;41.53;;;30.00;;
41139;SDS011;26881;48.784;9.192;2024-03-07T13:07:28;43.42;;;30.35;;
41139;SDS011;26881;48.784;9.192;2024-03-07T13:12:50;35.83;;;29.58;;
41139;SDS011;26881;48.784;9.192;2024-03-07T13:18:13;38.13;;;29.50;;
41139;SDS011;26881;48.784;9.192;2024-03-07T13:23:35;46.05;;;29.60;;
41139;SDS011;26881;48.784;9.192;2024-03-07T13:28:58;37.55;;;28.35;;
41139;SDS011;26881;48.784;9.192;2024-03-07T13:34:23;32.55;;;26.58;;
41139;SDS011;26881;48.784;9.192;2024-03-07T13:39:47;33.45;;;27.42;;
41139;SDS011;26881;48.784;9.192;2024-03-07T13:45:09;34.80;;;27.00;;
41139;SDS011;26881;48.784;9.192;2024-03-07T13:50:34;42.88;;;29.60;;
41139;SDS011;26881;48.784;9.192;2024-03-07T14:08:34;39.30;;;29.55;;
41139;SDS011;26881;48.784;9.192;2024-03-07T14:31:12;39.80;;;31.30;;
41139;SDS011;26881;48.784;9.192;2024-03-07T14:36:44;45.60;;;31.13;;
41139;SDS011;26881;48.784;9.192;2024-03-07T14:42:07;38.83;;;29.25;;
41139;SDS011;26881;48.784;9.192;2024-03-07T14:47:33;39.72;;;29.00;;
41139;SDS011;26881;48.784;9.192;2024-03-07T14:52:55;38.08;;;29.25;;
41139;SDS011;26881;48.784;9.192;2024-03-07T14:58:18;41.25;;;29.85;;
41139;SDS011;26881;48.784;9.192;2024-03-07T15:03:41;40.50;;;29.13;;
41139;SDS011;26881;48.784;9.192;2024-03-07T15:09:06;41.45;;;28.05;;
41139;SDS011;26881;48.784;9.192;2024-03-07T15:14:31;41.92;;;29.10;;
41139;SDS011;26881;48.784;9.192;2024-03-07T15:20:00;37.80;;;28.58;;
41139;SDS011;26881;48.784;9.192;2024-03-07T15:25:22;41.50;;;28.73;;
41139;SDS011;26881;48.784;9.192;2024-03-07T15:30:45;37.15;;;28.77;;
41139;SDS011;26881;48.784;9.192;2024-03-07T15:36:07;35.30;;;26.73;;
41139;SDS011;26881;48.784;9.192;2024-03-07T15:41:30;40.42;;;27.85;;
41139;SDS011;26881;48.784;9.192;2024-03-07T15:46:55;35.05;;;26.08;;
41139;SDS011;26881;48.784;9.192;2024-03-07T15:52:16;32.33;;;25.42;;
41139;SDS011;26881;48.784;9.192;2024-03-07T15:57:55;33.53;;;25.30;;
41139;SDS011;26881;48.784;9.192;2024-03-07T16:03:27;36.13;;;26.02;;
41139;SDS011;26881;48.784;9.192;2024-03-07T16:08:50;35.43;;;26.67;;
41139;SDS011;26881;48.784;9.192;2024-03-07T16:14:12;36.10;;;25.23;;
41139;SDS011;26881;48.784;9.192;2024-03-07T16:19:33;31.08;;;22.90;;
41139;SDS011;26881;48.784;9.192;2024-03-07T16:24:55;34.97;;;24.17;;
41139;SDS011;26881;48.784;9.192;2024-03-07T16:30:21;33.58;;;24.65;;
41139;SDS011;26881;48.784;9.192;2024-03-07T16:35:44;34.40;;;24.83;;
41139;SDS011;26881;48.784;9.192;2024-03-07T16:41:07;35.58;;;24.60;;
41139;SDS011;26881;48.784;9.192;2024-03-07T16:46:29;33.42;;;23.92;;
41139;SDS011;26881;48.784;9.192;2024-03-07T16:51:50;34.13;;;24.67;;
41139;SDS011;26881;48.784;9.192;2024-03-07T16:57:12;34.40;;;25.20;;
41139;SDS011;26881;48.784;9.192;2024-03-07T17:02:38;34.08;;;24.25;;
41139;SDS011;26881;48.784;9.192;2024-03-07T17:08:00;34.67;;;24.35;;
41139;SDS011;26881;48.784;9.192;2024-03-07T17:13:23;39.72;;;28.50;;
41139;SDS011;26881;48.784;9.192;2024-03-07T17:18:47;42.30;;;28.88;;
41139;SDS011;26881;48.784;9.192;2024-03-07T17:24:09;34.10;;;24.58;;
41139;SDS011;26881;48.784;9.192;2024-03-07T17:29:31;33.72;;;24.95;;
41139;SDS011;26881;48.784;9.192;2024-03-07T17:34:54;31.73;;;23.15;;
41139;SDS011;26881;48.784;9.192;2024-03-07T17:40:16;33.27;;;24.17;;
41139;SDS011;26881;48.784;9.192;2024-03-07T17:45:42;32.15;;;23.02;;
41139;SDS011;26881;48.784;9.192;2024-03-07T17:51:04;27.48;;;21.70;;
41139;SDS011;26881;48.784;9.192;2024-03-07T17:56:28;24.98;;;19.90;;
41139;SDS011;26881;48.784;9.192;2024-03-07T18:01:50;27.70;;;19.97;;
41139;SDS011;26881;48.784;9.192;2024-03-07T18:07:12;32.63;;;21.55;;
41139;SDS011;26881;48.784;9.192;2024-03-07T18:12:34;29.80;;;20.10;;
41139;SDS011;26881;48.784;9.192;2024-03-07T18:17:58;26.17;;;20.37;;
41139;SDS011;26881;48.784;9.192;2024-03-07T18:23:21;28.23;;;20.27;;
41139;SDS011;26881;48.784;9.192;2024-03-07T18:28:43;28.02;;;20.70;;
41139;SDS011;26881;48.784;9.192;2024-03-07T18:34:06;28.92;;;21.02;;
41139;SDS011;26881;48.784;9.192;2024-03-07T18:39:28;26.77;;;20.27;;
41139;SDS011;26881;48.784;9.192;2024-03-07T18:44:50;28.77;;;19.80;;
41139;SDS011;26881;48.784;9.192;2024-03-07T18:50:15;27.97;;;21.23;;
41139;SDS011;26881;48.784;9.192;2024-03-07T18:55:38;39.30;;;20.83;;
41139;SDS011;26881;48.784;9.192;2024-03-07T19:01:00;28.53;;;20.90;;
41139;SDS011;26881;48.784;9.192;2024-03-07T19:06:25;31.67;;;22.60;;
41139;SDS011;26881;48.784;9.192;2024-03-07T19:11:49;30.98;;;22.08;;
41139;SDS011;26881;48.784;9.192;2024-03-07T19:17:13;32.57;;;22.27;;
41139;SDS011;26881;48.784;9.192;2024-03-07T19:22:35;29.47;;;20.87;;
41139;SDS011;26881;48.784;9.192;2024-03-07T19:27:57;32.57;;;21.80;;
41139;SDS011;26881;48.784;9.192;2024-03-07T19:33:20;28.53;;;21.43;;
41139;SDS011;26881;48.784;9.192;2024-03-07T19:38:44;31.30;;;21.90;;
41139;SDS011;26881;48.784;9.192;2024-03-07T19:44:10;29.73;;;22.00;;
41139;SDS011;26881;48.784;9.192;2024-03-07T19:49:31;31.67;;;21.63;;
41139;SDS011;26881;48.784;9.192;2024-03-07T19:54:54;27.92;;;21.25;;
41139;SDS011;26881;48.784;9.192;2024-03-07T20:00:17;31.30;;;21.80;;
41139;SDS011;26881;48.784;9.192;2024-03-07T20:05:39;29.20;;;21.17;;
41139;SDS011;26881;48.784;9.192;2024-03-07T20:11:01;32.50;;;22.50;;
41139;SDS011;26881;48.784;9.192;2024-03-07T20:16:23;31.77;;;21.60;;
41139;SDS011;26881;48.784;9.192;2024-03-07T20:21:46;29.67;;;21.33;;
41139;SDS011;26881;48.784;9.192;2024-03-07T20:27:09;30.20;;;21.33;;
41139;SDS011;26881;48.784;9.192;2024-03-07T20:32:32;26.87;;;20.83;;
41139;SDS011;26881;48.784;9.192;2024-03-07T20:37:57;32.22;;;22.60;;
41139;SDS011;26881;48.784;9.192;2024-03-07T20:43:23;34.43;;;22.83;;
41139;SDS011;26881;48.784;9.192;2024-03-07T20:48:45;28.80;;;22.20;;
41139;SDS011;26881;48.784;9.192;2024-03-07T20:54:07;34.17;;;21.53;;
41139;SDS011;26881;48.784;9.192;2024-03-07T20:59:29;32.93;;;22.83;;
41139;SDS011;26881;48.784;9.192;2024-03-07T21:04:52;33.10;;;22.43;;
41139;SDS011;26881;48.784;9.192;2024-03-07T21:10:14;27.27;;;21.23;;
41139;SDS011;26881;48.784;9.192;2024-03-07T21:15:37;28.27;;;21.70;;
41139;SDS011;26881;48.784;9.192;2024-03-07T21:20:59;32.40;;;22.83;;
41139;SDS011;26881;48.784;9.192;2024-03-07T21:26:21;33.20;;;22.80;;
41139;SDS011;26881;48.784;9.192;2024-03-07T21:31:43;31.73;;;22.50;;
41139;SDS011;26881;48.784;9.192;2024-03-07T21:37:05;31.10;;;23.50;;
41139;SDS011;26881;48.784;9.192;2024-03-07T21:42:27;27.67;;;21.33;;
41139;SDS011;26881;48.784;9.192;2024-03-07T21:47:49;30.80;;;22.93;;
41139;SDS011;26881;48.784;9.192;2024-03-07T21:53:11;32.53;;;22.43;;
41139;SDS011;26881;48.784;9.192;2024-03-07T21:58:32;34.20;;;23.03;;
41139;SDS011;26881;48.784;9.192;2024-03-07T22:03:54;34.73;;;24.00;;
41139;SDS011;26881;48.784;9.192;2024-03-07T22:09:18;32.43;;;23.57;;
41139;SDS011;26881;48.784;9.192;2024-03-07T22:14:40;32.10;;;22.57;;
41139;SDS011;26881;48.784;9.192;2024-03-07T22:20:02;34.27;;;23.57;;
41139;SDS011;26881;48.784;9.192;2024-03-07T22:25:25;30.30;;;22.43;;
41139;SDS011;26881;48.784;9.192;2024-03-07T22:30:47;33.90;;;23.53;;
41139;SDS011;26881;48.784;9.192;2024-03-07T22:36:09;36.83;;;23.67;;
41139;SDS011;26881;48.784;9.192;2024-03-07T22:41:31;31.77;;;23.00;;
41139;SDS011;26881;48.784;9.192;2024-03-07T22:46:54;31.20;;;23.13;;
41139;SDS011;26881;48.784;9.192;2024-03-07T22:52:16;33.20;;;23.37;;
41139;SDS011;26881;48.784;9.192;2024-03-07T22:57:38;30.73;;;23.57;;
41139;SDS011;26881;48.784;9.192;2024-03-07T23:03:01;35.03;;;22.13;;
41139;SDS011;26881;48.784;9.192;2024-03-07T23:08:26;30.67;;;21.20;;
41139;SDS011;26881;48.784;9.192;2024-03-07T23:13:48;31.17;;;21.83;;
41139;SDS011;26881;48.784;9.192;2024-03-07T23:19:11;31.17;;;21.67;;
41139;SDS011;26881;48.784;9.192;2024-03-07T23:24:36;29.37;;;22.13;;
41139;SDS011;26881;48.784;9.192;2024-03-07T23:29:58;28.73;;;22.13;;
41139;SDS011;26881;48.784;9.192;2024-03-07T23:35:20;33.07;;;22.00;;
41139;SDS011;26881;48.784;9.192;2024-03-07T23:40:42;33.07;;;23.00;;
41139;SDS011;26881;48.784;9.192;2024-03-07T23:46:04;32.20;;;22.37;;
41139;SDS011;26881;48.784;9.192;2024-03-07T23:51:26;31.60;;;21.93;;
41139;SDS011;26881;48.784;9.192;2024-03-07T23:56:48;32.40;;;22.47;;
